Time;durP1;ratioP1;P1;durP2;ratioP2;P2;SDS_P1;SDS_P2;PMS_P1;PMS_P2;Temp;Humidity;BMP_temperature;BMP_pressure;BME280_temperature;BME280_humidity;BME280_pressure;Samples;Min_cycle;Max_cycle;Signal;HPM_P1;HPM_P2
2022/05/11 00:01:43;;;;;;;7.18;6.68;;;15.50;99.90;;;;;;5032977;28;20180;-72
2022/05/11 00:04:09;;;;;;;8.38;7.57;;;15.50;99.90;;;;;;5034160;28;20165;-73
2022/05/11 00:06:37;;;;;;;8.25;7.55;;;15.50;99.90;;;;;;5033856;28;20204;-73
2022/05/11 00:09:04;;;;;;;7.82;7.32;;;15.50;99.90;;;;;;5033592;28;20532;-73
2022/05/11 00:11:30;;;;;;;8.55;7.85;;;15.50;99.90;;;;;;5014894;28;20235;-73
2022/05/11 00:13:57;;;;;;;7.75;7.13;;;15.50;99.90;;;;;;5013929;28;20185;-72
2022/05/11 00:16:24;;;;;;;8.85;8.15;;;15.50;99.90;;;;;;5013887;28;20211;-72
2022/05/11 00:18:49;;;;;;;8.40;7.80;;;15.50;99.90;;;;;;5014259;28;20173;-72
2022/05/11 00:21:15;;;;;;;8.60;7.80;;;15.40;99.90;;;;;;5030491;28;20180;-72
2022/05/11 00:23:41;;;;;;;7.93;7.22;;;15.50;99.90;;;;;;5033169;28;20243;-73
2022/05/11 00:26:07;;;;;;;8.43;7.63;;;15.50;99.90;;;;;;5033910;28;20184;-73
2022/05/11 00:28:33;;;;;;;8.57;7.70;;;15.50;99.90;;;;;;5031472;28;20201;-73
2022/05/11 00:30:59;;;;;;;8.75;8.00;;;15.50;99.90;;;;;;5033700;28;20568;-72
2022/05/11 00:33:25;;;;;;;8.38;7.63;;;15.50;99.90;;;;;;5032932;28;20275;-72
2022/05/11 00:35:51;;;;;;;8.80;7.93;;;15.60;99.90;;;;;;5030731;28;20216;-72
2022/05/11 00:38:20;;;;;;;8.32;7.63;;;15.50;99.90;;;;;;5033314;28;20223;-73
2022/05/11 00:40:56;;;;;;;8.82;8.13;;;15.60;99.90;;;;;;5049001;28;20226;-72
2022/05/11 00:43:33;;;;;;;9.10;8.10;;;15.60;99.90;;;;;;5033188;28;20322;-72
2022/05/11 00:46:13;;;;;;;8.02;7.43;;;15.60;99.90;;;;;;5032052;28;20184;-73
2022/05/11 00:51:32;;;;;;;8.38;7.78;;;15.60;99.90;;;;;;5033255;28;20175;-73
2022/05/11 00:53:58;;;;;;;8.88;8.13;;;15.60;99.90;;;;;;5032806;28;20645;-73
2022/05/11 00:56:24;;;;;;;8.30;7.60;;;15.60;99.90;;;;;;5031603;28;20184;-72
2022/05/11 00:58:56;;;;;;;8.80;7.97;;;15.60;99.90;;;;;;5048260;28;20310;-73
2022/05/11 01:01:23;;;;;;;8.55;7.78;;;15.60;99.90;;;;;;5032902;28;20255;-72
2022/05/11 01:04:00;;;;;;;8.82;8.13;;;15.60;99.90;;;;;;5028249;28;20214;-73
2022/05/11 01:06:26;;;;;;;9.60;8.30;;;15.60;99.90;;;;;;5032710;28;20176;-73
2022/05/11 01:08:52;;;;;;;9.00;8.30;;;15.60;99.90;;;;;;5025440;28;20173;-73
2022/05/11 01:11:18;;;;;;;7.88;7.07;;;15.60;99.90;;;;;;5026360;28;20181;-72
2022/05/11 01:13:46;;;;;;;8.73;7.97;;;15.60;99.90;;;;;;5032174;28;20184;-72
2022/05/11 01:16:12;;;;;;;9.50;8.50;;;15.60;99.90;;;;;;5032913;28;20401;-73
2022/05/11 01:18:39;;;;;;;9.38;8.30;;;15.60;99.90;;;;;;5033134;28;20196;-72
2022/05/11 01:21:07;;;;;;;8.98;8.07;;;15.60;99.90;;;;;;5030440;28;20185;-75
2022/05/11 01:23:41;;;;;;;9.25;8.50;;;15.60;99.90;;;;;;5012676;28;20276;-72
2022/05/11 01:26:07;;;;;;;10.27;9.35;;;15.60;99.90;;;;;;5013284;28;20173;-72
2022/05/11 01:28:38;;;;;;;8.57;7.90;;;15.60;99.90;;;;;;5012498;28;20809;-73
2022/05/11 01:31:07;;;;;;;9.52;8.63;;;15.50;99.90;;;;;;5021277;28;20223;-72
2022/05/11 01:33:35;;;;;;;13.15;8.75;;;15.50;99.90;;;;;;5020025;28;20192;-72
2022/05/11 01:36:25;;;;;;;9.82;9.02;;;15.40;99.90;;;;;;5031026;28;20322;-73
2022/05/11 01:38:55;;;;;;;9.02;8.32;;;15.40;99.90;;;;;;5031544;28;20180;-72
2022/05/11 01:41:27;;;;;;;9.05;8.15;;;15.40;99.90;;;;;;5032471;28;20215;-73
2022/05/11 01:43:53;;;;;;;9.95;9.05;;;15.40;99.90;;;;;;5031797;28;20613;-73
2022/05/11 01:46:19;;;;;;;9.48;8.68;;;15.40;99.90;;;;;;5028369;28;20173;-73
2022/05/11 01:48:45;;;;;;;9.27;8.48;;;15.40;99.90;;;;;;5026361;28;20173;-72
2022/05/11 01:51:17;;;;;;;9.68;8.88;;;15.40;99.90;;;;;;5032318;28;20183;-72
2022/05/11 01:53:43;;;;;;;10.48;9.50;;;15.40;99.90;;;;;;5032331;28;20173;-73
2022/05/11 01:56:12;;;;;;;11.35;8.57;;;15.30;99.90;;;;;;5023648;28;20524;-73
2022/05/11 01:58:37;;;;;;;9.45;8.55;;;15.20;99.90;;;;;;5021417;28;20620;-74
2022/05/11 02:01:03;;;;;;;11.05;8.80;;;15.20;99.90;;;;;;5032478;28;20236;-73
2022/05/11 02:03:29;;;;;;;9.25;8.40;;;15.10;99.90;;;;;;5030988;28;20583;-73
2022/05/11 02:08:51;;;;;;;11.02;9.18;;;15.00;99.90;;;;;;5028970;28;20192;-72
2022/05/11 02:11:17;;;;;;;8.85;8.15;;;15.00;99.90;;;;;;5031570;28;20187;-72
2022/05/11 02:13:44;;;;;;;9.55;8.75;;;14.90;99.90;;;;;;5032109;28;20176;-73
2022/05/11 02:16:11;;;;;;;10.00;9.20;;;14.90;99.90;;;;;;5032261;28;20165;-72
2022/05/11 02:18:37;;;;;;;9.85;9.05;;;14.90;99.90;;;;;;5031401;28;20703;-73
2022/05/11 02:21:04;;;;;;;9.68;8.85;;;14.90;99.90;;;;;;5032279;28;20218;-72
2022/05/11 02:23:30;;;;;;;10.77;9.77;;;14.80;99.90;;;;;;5030692;28;20212;-73
2022/05/11 02:25:57;;;;;;;9.95;9.20;;;14.80;99.90;;;;;;5030361;28;20177;-72
2022/05/11 02:28:23;;;;;;;9.80;8.55;;;14.70;99.90;;;;;;5030352;28;20192;-72
2022/05/11 02:30:54;;;;;;;10.25;9.38;;;14.60;99.90;;;;;;5029619;28;20185;-72
2022/05/11 02:33:21;;;;;;;10.38;9.48;;;14.60;99.90;;;;;;5024300;28;20833;-72
2022/05/11 02:35:49;;;;;;;10.75;9.88;;;14.50;99.90;;;;;;5020618;28;20181;-71
2022/05/11 02:38:20;;;;;;;10.77;9.60;;;14.50;99.90;;;;;;5029047;28;20200;-72
2022/05/11 02:40:47;;;;;;;11.00;10.10;;;14.50;99.90;;;;;;5032405;28;20196;-73
2022/05/11 02:43:14;;;;;;;10.95;10.05;;;14.50;99.90;;;;;;5025001;28;20204;-72
2022/05/11 02:45:41;;;;;;;11.45;10.35;;;14.50;99.90;;;;;;5024880;28;20240;-72
2022/05/11 02:48:09;;;;;;;10.82;9.75;;;14.50;99.90;;;;;;5026253;28;20193;-72
2022/05/11 02:50:44;;;;;;;10.00;9.10;;;14.50;99.90;;;;;;5023402;28;20413;-72
2022/05/11 02:53:11;;;;;;;9.48;8.77;;;14.50;99.90;;;;;;5044125;28;20208;-72
2022/05/11 02:55:45;;;;;;;10.15;9.25;;;14.50;99.90;;;;;;5024014;28;20184;-73
2022/05/11 02:58:13;;;;;;;11.18;10.18;;;14.50;99.90;;;;;;5028324;28;20218;-72
2022/05/11 03:00:43;;;;;;;10.73;9.82;;;14.50;99.90;;;;;;5035725;28;20183;-72
2022/05/11 03:03:10;;;;;;;10.90;9.98;;;14.40;99.90;;;;;;5030224;28;20208;-72
2022/05/11 03:05:36;;;;;;;11.40;10.07;;;14.30;99.90;;;;;;5028146;28;20184;-72
2022/05/11 03:08:02;;;;;;;11.45;10.52;;;14.20;99.90;;;;;;5025446;28;20541;-72
2022/05/11 03:10:28;;;;;;;12.40;10.68;;;14.20;99.90;;;;;;5024184;28;20165;-72
2022/05/11 03:12:53;;;;;;;11.73;10.73;;;14.20;99.90;;;;;;5025399;28;20199;-72
2022/05/11 03:15:19;;;;;;;12.35;10.38;;;14.20;99.90;;;;;;5029698;28;20635;-72
2022/05/11 03:17:45;;;;;;;11.90;10.80;;;14.30;99.90;;;;;;5027984;28;20208;-72
2022/05/11 03:20:11;;;;;;;11.23;10.10;;;14.20;99.90;;;;;;5030285;28;20647;-72
2022/05/11 03:22:38;;;;;;;10.70;9.80;;;14.10;99.90;;;;;;5037785;28;20354;-72
2022/05/11 03:25:05;;;;;;;11.45;10.45;;;14.00;99.90;;;;;;5021126;28;20177;-72
2022/05/11 03:27:31;;;;;;;10.63;9.82;;;14.00;99.90;;;;;;5029459;28;20200;-72
2022/05/11 03:29:56;;;;;;;11.20;10.25;;;14.00;99.90;;;;;;5032178;28;20187;-72
2022/05/11 03:35:08;;;;;;;10.63;9.70;;;14.00;99.90;;;;;;5026857;28;20547;-72
2022/05/11 03:37:34;;;;;;;12.30;10.75;;;14.00;99.90;;;;;;5024082;28;20200;-72
2022/05/11 03:40:01;;;;;;;10.43;9.57;;;14.00;99.90;;;;;;5034849;28;20169;-73
2022/05/11 03:42:31;;;;;;;11.70;10.70;;;14.10;99.90;;;;;;5025029;28;20214;-72
2022/05/11 03:45:10;;;;;;;11.73;10.65;;;14.10;99.90;;;;;;5028350;28;20177;-71
2022/05/11 03:47:35;;;;;;;12.07;10.88;;;14.10;99.90;;;;;;5028934;28;20211;-72
2022/05/11 03:50:01;;;;;;;12.15;11.05;;;14.00;99.90;;;;;;5025444;28;20544;-72
2022/05/11 03:52:27;;;;;;;12.30;11.18;;;14.00;99.90;;;;;;5023398;28;20181;-72
2022/05/11 03:54:53;;;;;;;10.63;9.73;;;14.00;99.90;;;;;;5024789;28;20215;-72
2022/05/11 03:57:19;;;;;;;11.18;10.20;;;14.00;99.90;;;;;;5021234;28;20201;-72
2022/05/11 03:59:44;;;;;;;10.85;9.80;;;14.00;99.90;;;;;;5030222;28;20589;-72
2022/05/11 04:02:10;;;;;;;11.23;10.13;;;14.00;99.90;;;;;;5028691;28;20213;-71
2022/05/11 04:04:35;;;;;;;11.35;10.25;;;14.10;99.90;;;;;;5022894;28;20598;-72
2022/05/11 04:07:01;;;;;;;11.45;10.25;;;14.10;99.90;;;;;;5025609;28;20200;-71
2022/05/11 04:09:27;;;;;;;11.48;10.40;;;14.10;99.90;;;;;;5032253;28;20187;-71
2022/05/11 04:11:52;;;;;;;11.90;10.80;;;14.00;99.90;;;;;;5031050;28;20192;-72
2022/05/11 04:14:18;;;;;;;11.88;10.77;;;14.00;99.90;;;;;;5014333;28;20170;-72
2022/05/11 04:16:43;;;;;;;12.00;10.88;;;14.00;99.90;;;;;;5021726;28;20199;-72
2022/05/11 04:19:09;;;;;;;12.85;11.57;;;13.90;99.90;;;;;;5033459;28;20639;-72
2022/05/11 04:21:35;;;;;;;11.52;10.60;;;13.80;99.90;;;;;;5033442;28;20177;-72
2022/05/11 04:24:01;;;;;;;12.15;10.95;;;13.80;99.90;;;;;;5033957;28;20204;-72
2022/05/11 04:26:30;;;;;;;11.93;10.90;;;13.70;99.90;;;;;;5033136;28;20181;-72
2022/05/11 04:28:56;;;;;;;12.43;11.43;;;13.70;99.90;;;;;;5033800;28;20169;-72
2022/05/11 04:31:22;;;;;;;12.32;11.23;;;13.80;99.90;;;;;;5033331;28;20173;-73
2022/05/11 04:33:47;;;;;;;11.15;10.07;;;13.70;99.90;;;;;;5032710;28;20176;-72
2022/05/11 04:36:13;;;;;;;11.35;10.25;;;13.80;99.90;;;;;;5034137;28;20256;-72
2022/05/11 04:38:38;;;;;;;12.57;11.48;;;13.80;99.90;;;;;;5033863;28;20250;-72
2022/05/11 04:41:04;;;;;;;12.00;10.82;;;13.90;99.90;;;;;;5032330;28;20231;-72
2022/05/11 04:43:30;;;;;;;14.10;10.68;;;14.00;99.90;;;;;;5032192;28;20212;-72
2022/05/11 04:45:57;;;;;;;11.68;10.63;;;14.00;99.90;;;;;;5033545;28;20177;-72
2022/05/11 04:48:22;;;;;;;10.90;9.80;;;14.10;99.90;;;;;;5032427;28;20200;-73
2022/05/11 04:50:48;;;;;;;11.20;10.05;;;14.10;99.90;;;;;;5030133;28;20218;-75
2022/05/11 04:53:16;;;;;;;11.65;10.30;;;14.20;99.90;;;;;;5032308;28;20184;-74
2022/05/11 04:55:42;;;;;;;10.73;9.70;;;14.30;99.90;;;;;;5034340;28;20236;-73
2022/05/11 04:58:07;;;;;;;11.65;10.55;;;14.40;99.90;;;;;;5033618;28;20550;-73
2022/05/11 05:00:35;;;;;;;10.98;10.07;;;14.50;99.90;;;;;;5033116;28;20188;-74
2022/05/11 05:03:02;;;;;;;11.63;10.57;;;14.60;99.90;;;;;;5033270;28;20196;-74
2022/05/11 05:05:28;;;;;;;11.25;10.35;;;14.70;99.90;;;;;;5034280;28;20590;-73
2022/05/11 05:07:54;;;;;;;12.05;10.95;;;14.80;99.90;;;;;;5024574;28;20288;-73
2022/05/11 05:10:21;;;;;;;12.38;10.65;;;15.00;99.90;;;;;;5026601;28;20180;-73
2022/05/11 05:12:47;;;;;;;11.10;10.10;;;15.10;99.90;;;;;;5033806;28;20180;-73
2022/05/11 05:15:15;;;;;;;11.90;10.82;;;15.10;99.90;;;;;;5028573;28;20181;-77
2022/05/11 05:17:40;;;;;;;10.70;9.85;;;15.20;99.90;;;;;;5028586;28;20667;-75
2022/05/11 05:20:10;;;;;;;12.07;10.98;;;15.20;99.90;;;;;;5028525;28;20277;-76
2022/05/11 05:22:36;;;;;;;11.60;10.65;;;15.30;99.90;;;;;;5025885;28;20210;-76
2022/05/11 05:25:03;;;;;;;12.27;10.90;;;15.40;99.90;;;;;;5022112;28;20208;-75
2022/05/11 05:27:28;;;;;;;11.88;10.98;;;15.50;99.90;;;;;;5033793;28;20246;-76
2022/05/11 05:32:41;;;;;;;12.45;10.68;;;15.60;99.90;;;;;;5029163;28;20403;-77
2022/05/11 05:35:09;;;;;;;12.90;11.63;;;15.80;99.90;;;;;;5020960;28;20747;-78
2022/05/11 05:37:35;;;;;;;13.98;11.32;;;15.90;99.90;;;;;;5020506;28;20208;-79
2022/05/11 05:40:02;;;;;;;11.23;10.20;;;16.00;99.90;;;;;;5020361;28;20180;-79
2022/05/11 05:42:28;;;;;;;11.57;10.65;;;16.20;99.90;;;;;;5024578;28;20215;-78
2022/05/11 05:44:54;;;;;;;11.30;10.20;;;16.30;99.90;;;;;;5017144;28;20273;-78
2022/05/11 05:47:20;;;;;;;10.98;9.88;;;16.50;99.90;;;;;;5019193;28;20510;-78
2022/05/11 05:49:46;;;;;;;9.98;9.07;;;16.50;99.90;;;;;;5035236;28;20184;-80
2022/05/11 05:52:21;;;;;;;10.50;9.40;;;16.60;99.90;;;;;;5033115;28;20193;-79
2022/05/11 05:54:47;;;;;;;11.35;10.38;;;16.80;99.90;;;;;;5036891;28;20214;-79
2022/05/11 05:57:14;;;;;;;10.77;9.77;;;16.90;99.90;;;;;;5034988;28;20604;-77
2022/05/11 05:59:40;;;;;;;10.82;9.70;;;17.10;99.90;;;;;;5037893;28;20192;-79
2022/05/11 06:02:13;;;;;;;11.23;10.00;;;17.20;99.90;;;;;;5036489;28;20184;-79
2022/05/11 06:04:43;;;;;;;11.23;10.30;;;17.30;99.90;;;;;;5037454;28;20179;-79
2022/05/11 06:07:11;;;;;;;11.00;9.90;;;17.50;99.90;;;;;;5036572;28;20396;-80
2022/05/11 06:09:38;;;;;;;10.70;9.32;;;17.70;99.90;;;;;;5035734;28;20177;-79
2022/05/11 06:12:05;;;;;;;10.57;9.57;;;17.90;99.90;;;;;;5024756;28;20203;-76
2022/05/11 06:14:31;;;;;;;10.55;9.70;;;18.20;99.90;;;;;;5025848;28;20222;-76
2022/05/11 06:16:59;;;;;;;9.43;8.63;;;18.60;99.90;;;;;;5035270;28;20668;-75
2022/05/11 06:19:24;;;;;;;10.93;9.93;;;18.70;99.90;;;;;;5016621;28;20644;-75
2022/05/11 06:21:50;;;;;;;12.25;10.30;;;18.70;99.90;;;;;;5021011;28;20182;-74
2022/05/11 06:24:16;;;;;;;10.73;9.63;;;18.60;99.90;;;;;;5030347;28;20200;-74
2022/05/11 06:26:41;;;;;;;10.25;9.18;;;18.60;99.90;;;;;;5030807;28;20204;-74
2022/05/11 06:29:07;;;;;;;11.73;9.52;;;18.60;99.90;;;;;;5028370;28;20188;-74
2022/05/11 06:31:33;;;;;;;9.73;8.90;;;18.60;99.90;;;;;;5022963;28;20184;-74
2022/05/11 06:33:58;;;;;;;9.38;8.48;;;18.70;99.90;;;;;;5019628;28;20185;-74
2022/05/11 06:36:24;;;;;;;9.77;8.88;;;18.90;99.90;;;;;;5035566;28;20176;-73
2022/05/11 06:38:51;;;;;;;10.80;9.82;;;19.00;99.90;;;;;;5033080;28;20263;-77
2022/05/11 06:41:20;;;;;;;9.55;8.85;;;19.10;99.90;;;;;;5029516;28;20212;-73
2022/05/11 06:43:46;;;;;;;10.98;9.88;;;19.10;99.90;;;;;;5034472;28;20683;-73
2022/05/11 06:46:13;;;;;;;9.98;9.13;;;19.10;99.90;;;;;;5034089;28;20267;-75
2022/05/11 06:48:38;;;;;;;11.25;9.45;;;19.10;99.90;;;;;;5032948;28;20196;-72
2022/05/11 06:51:04;;;;;;;9.43;8.75;;;19.10;99.90;;;;;;5034593;28;20173;-72
2022/05/11 06:59:16;;;;;;;10.38;9.32;;;19.20;99.90;;;;;;5034823;28;20259;-73
2022/05/11 07:01:44;;;;;;;9.98;8.95;;;19.70;99.90;;;;;;5030013;28;20196;-75
2022/05/11 07:04:09;;;;;;;9.88;8.90;;;19.70;99.90;;;;;;5024518;28;20213;-76
2022/05/11 07:06:35;;;;;;;9.68;8.82;;;19.70;99.90;;;;;;5020182;28;20304;-73
2022/05/11 07:09:00;;;;;;;9.07;8.27;;;19.70;99.90;;;;;;5015392;28;20219;-75
2022/05/11 07:14:11;;;;;;;9.10;8.30;;;19.60;99.90;;;;;;5022239;28;20216;-76
2022/05/11 07:16:37;;;;;;;9.93;8.82;;;19.50;99.90;;;;;;5028513;28;20212;-76
2022/05/11 07:19:04;;;;;;;9.50;8.63;;;19.60;99.90;;;;;;5034657;28;20181;-74
2022/05/11 07:21:30;;;;;;;10.73;9.60;;;19.60;99.90;;;;;;5033822;28;20643;-73
2022/05/11 07:23:55;;;;;;;10.35;9.35;;;19.70;99.90;;;;;;5017109;28;20259;-72
2022/05/11 07:26:21;;;;;;;9.20;8.30;;;19.70;99.90;;;;;;5025598;28;20177;-72
2022/05/11 07:28:47;;;;;;;10.38;9.48;;;19.90;99.90;;;;;;5034420;28;20632;-72
2022/05/11 07:31:13;;;;;;;11.05;9.93;;;20.00;99.90;;;;;;5025646;28;20216;-73
2022/05/11 07:33:39;;;;;;;8.75;7.90;;;20.10;99.90;;;;;;5014231;28;20245;-73
2022/05/11 07:36:05;;;;;;;9.23;8.52;;;20.10;99.90;;;;;;5014706;28;20176;-72
2022/05/11 07:38:32;;;;;;;9.63;8.82;;;20.30;99.90;;;;;;5014734;28;20194;-73
2022/05/11 07:40:57;;;;;;;10.30;9.15;;;20.40;99.90;;;;;;5022766;28;20675;-72
2022/05/11 07:43:23;;;;;;;10.25;9.23;;;20.50;99.90;;;;;;5031255;28;20200;-73
2022/05/11 07:45:49;;;;;;;9.82;8.73;;;20.60;99.90;;;;;;5032419;28;20561;-72
2022/05/11 07:48:18;;;;;;;8.07;7.47;;;20.70;99.90;;;;;;5031887;28;20200;-77
2022/05/11 07:50:44;;;;;;;8.13;7.40;;;20.80;99.90;;;;;;5031385;28;20264;-77
2022/05/11 07:53:10;;;;;;;10.23;8.48;;;21.00;99.90;;;;;;5028000;28;20276;-77
2022/05/11 07:55:36;;;;;;;7.70;7.07;;;21.10;99.90;;;;;;5029562;28;20200;-79
2022/05/11 08:00:46;;;;;;;7.65;6.95;;;21.30;99.90;;;;;;5040137;28;20223;-79
2022/05/11 08:03:12;;;;;;;7.10;6.50;;;21.40;99.90;;;;;;5029610;28;20205;-78
2022/05/11 08:05:38;;;;;;;7.38;6.68;;;21.40;99.90;;;;;;5028511;28;20708;-78
2022/05/11 08:08:06;;;;;;;6.55;6.05;;;21.40;99.90;;;;;;5017197;28;20203;-75
2022/05/11 08:10:41;;;;;;;6.60;6.10;;;21.40;99.90;;;;;;5024482;28;20263;-75
2022/05/11 08:13:07;;;;;;;6.70;6.10;;;21.60;99.90;;;;;;5026767;28;20180;-75
2022/05/11 08:15:36;;;;;;;6.63;6.13;;;21.60;99.90;;;;;;5033606;28;20184;-75
2022/05/11 08:18:04;;;;;;;6.07;5.68;;;21.60;99.90;;;;;;5017210;28;20247;-75
2022/05/11 08:20:34;;;;;;;6.72;6.13;;;21.70;99.90;;;;;;5019596;28;20181;-75
2022/05/11 08:23:02;;;;;;;7.05;6.45;;;21.80;99.90;;;;;;5021557;28;20247;-74
2022/05/11 08:25:30;;;;;;;9.32;6.90;;;21.80;99.90;;;;;;5020111;28;20543;-75
2022/05/11 08:27:57;;;;;;;6.63;6.13;;;21.90;99.90;;;;;;5018135;28;20193;-75
2022/05/11 08:33:24;;;;;;;7.47;6.05;;;22.00;99.90;;;;;;5029391;28;20172;-75
2022/05/11 08:36:04;;;;;;;6.07;5.68;;;22.00;99.90;;;;;;5035391;28;20203;-77
2022/05/11 08:38:35;;;;;;;7.00;6.40;;;22.10;99.90;;;;;;5040235;28;20609;-77
2022/05/11 08:41:36;;;;;;;6.00;5.47;;;22.10;99.90;;;;;;5025338;28;20627;-74
2022/05/11 08:44:07;;;;;;;6.32;5.72;;;22.20;99.90;;;;;;5017767;28;20764;-74
2022/05/11 08:46:45;;;;;;;4.70;4.40;;;22.30;99.90;;;;;;5022374;28;20185;-73
2022/05/11 08:49:23;;;;;;;6.60;6.00;;;22.40;99.90;;;;;;5019499;28;20169;-73
2022/05/11 08:51:56;;;;;;;6.45;5.22;;;22.50;99.90;;;;;;5022251;28;20535;-73
2022/05/11 08:54:32;;;;;;;6.05;5.53;;;22.60;99.90;;;;;;5020364;28;20204;-72
2022/05/11 08:56:59;;;;;;;8.55;4.45;;;22.70;99.90;;;;;;5017696;28;20723;-73
2022/05/11 08:59:32;;;;;;;5.10;4.70;;;22.90;99.90;;;;;;5013637;28;20508;-75
2022/05/11 09:02:22;;;;;;;4.38;4.07;;;23.00;99.90;;;;;;5026222;28;20179;-74
2022/05/11 09:04:54;;;;;;;4.57;4.28;;;23.10;99.90;;;;;;5031705;28;20168;-74
2022/05/11 09:07:20;;;;;;;5.68;4.28;;;23.20;99.90;;;;;;5027894;28;20267;-74
2022/05/11 09:09:46;;;;;;;4.78;4.30;;;23.30;99.90;;;;;;5029780;28;20649;-74
2022/05/11 09:12:12;;;;;;;4.55;4.13;;;23.40;99.90;;;;;;5031127;28;20184;-74
2022/05/11 09:14:45;;;;;;;4.40;4.10;;;23.50;99.90;;;;;;5027345;28;20200;-74
2022/05/11 09:17:22;;;;;;;3.83;3.35;;;23.70;99.90;;;;;;5018648;28;20193;-74
2022/05/11 09:20:17;;;;;;;3.80;3.50;;;23.90;99.90;;;;;;5019097;28;20174;-77
2022/05/11 09:22:59;;;;;;;4.00;3.70;;;24.40;99.90;;;;;;5024519;28;20193;-77
2022/05/11 09:25:32;;;;;;;4.55;4.00;;;26.60;99.90;;;;;;5020202;28;20204;-76
2022/05/11 09:28:19;;;;;;;3.70;3.50;;;28.80;97.10;;;;;;5021871;28;20322;-76
2022/05/11 09:31:12;;;;;;;4.40;3.65;;;29.90;86.90;;;;;;5017172;28;20192;-75
2022/05/11 09:33:41;;;;;;;3.70;3.50;;;31.30;77.30;;;;;;5012116;28;20176;-76
2022/05/11 09:36:11;;;;;;;33.70;3.80;;;33.10;66.30;;;;;;5012297;28;20173;-76
2022/05/11 09:38:42;;;;;;;3.75;3.50;;;33.80;58.20;;;;;;5014889;28;20197;-74
2022/05/11 09:41:28;;;;;;;3.78;3.28;;;34.30;55.80;;;;;;5015314;28;20236;-75
2022/05/11 09:43:58;;;;;;;3.38;3.17;;;34.40;53.20;;;;;;5021431;28;20303;-75
2022/05/11 09:46:26;;;;;;;4.32;2.88;;;34.80;52.20;;;;;;5016664;28;20513;-76
2022/05/11 09:49:24;;;;;;;3.60;3.30;;;36.00;50.90;;;;;;5021992;28;20203;-73
2022/05/11 09:51:50;;;;;;;3.42;2.92;;;36.80;49.40;;;;;;5026594;28;20176;-75
2022/05/11 09:54:21;;;;;;;2.83;2.63;;;36.90;48.00;;;;;;5024439;28;20183;-73
2022/05/11 09:56:50;;;;;;;3.05;2.75;;;37.30;45.60;;;;;;5030216;28;20646;-74
2022/05/11 09:59:34;;;;;;;2.80;2.60;;;37.80;44.30;;;;;;5031694;28;20168;-74
2022/05/11 10:02:00;;;;;;;5.32;2.38;;;37.70;43.60;;;;;;5029120;28;20556;-75
2022/05/11 10:04:34;;;;;;;2.88;2.67;;;37.60;42.80;;;;;;5027781;28;20266;-72
2022/05/11 10:07:01;;;;;;;2.50;2.30;;;37.40;43.30;;;;;;5021070;28;20205;-72
2022/05/11 10:09:32;;;;;;;2.25;2.15;;;37.30;44.00;;;;;;5025102;28;20173;-71
2022/05/11 10:11:59;;;;;;;3.90;2.40;;;37.50;41.90;;;;;;5022557;28;20184;-72
2022/05/11 10:23:02;;;;;;;2.40;2.22;;;37.50;41.90;;;;;;5020730;28;20215;-72
2022/05/11 10:25:29;;;;;;;2.50;2.20;;;37.60;41.90;;;;;;5025058;28;20723;-72
2022/05/11 10:28:09;;;;;;;2.47;2.28;;;38.20;40.50;;;;;;5022516;28;20226;-72
2022/05/11 10:30:50;;;;;;;3.05;2.15;;;38.00;40.70;;;;;;5023203;28;20186;-71
2022/05/11 10:33:53;;;;;;;2.35;2.25;;;37.00;42.60;;;;;;5015544;28;20187;-76
2022/05/11 10:36:22;;;;;;;2.38;2.17;;;37.70;41.40;;;;;;5045570;28;20180;-76
2022/05/11 10:38:50;;;;;;;2.55;2.38;;;37.60;41.20;;;;;;5030523;28;20718;-76
2022/05/11 10:41:23;;;;;;;2.30;2.20;;;38.10;41.20;;;;;;5027698;28;20206;-74
2022/05/11 10:43:54;;;;;;;2.85;2.45;;;38.20;40.30;;;;;;5018452;28;20208;-71
2022/05/11 10:46:26;;;;;;;2.40;2.25;;;38.50;40.90;;;;;;5022517;28;20525;-73
2022/05/11 10:48:58;;;;;;;2.20;2.08;;;38.80;40.30;;;;;;5021844;28;20172;-72
2022/05/11 10:52:01;;;;;;;2.63;2.42;;;39.00;40.70;;;;;;5016556;28;20169;-72
2022/05/11 10:54:51;;;;;;;2.50;2.38;;;39.70;39.40;;;;;;5027932;28;20188;-76
2022/05/11 10:57:50;;;;;;;3.05;2.70;;;40.10;39.00;;;;;;5030977;28;20209;-75
2022/05/11 11:00:21;;;;;;;2.70;2.50;;;40.20;38.10;;;;;;5021401;28;20181;-73
2022/05/11 11:03:32;;;;;;;2.28;2.17;;;39.80;39.90;;;;;;5015215;28;20209;-72
2022/05/11 11:09:34;;;;;;;2.17;2.08;;;40.50;39.20;;;;;;5017647;28;20230;-73
2022/05/11 11:12:31;;;;;;;2.03;1.92;;;40.80;36.10;;;;;;5024421;28;20295;-74
2022/05/11 11:15:00;;;;;;;2.13;1.92;;;39.70;35.60;;;;;;5026746;28;20183;-78
2022/05/11 11:17:27;;;;;;;2.38;1.92;;;39.10;36.70;;;;;;5025195;28;20198;-76
2022/05/11 11:19:57;;;;;;;2.10;2.00;;;38.80;37.00;;;;;;5025652;28;20180;-76
2022/05/11 11:22:22;;;;;;;2.28;2.13;;;38.20;37.30;;;;;;5021514;28;20701;-75
2022/05/11 11:25:10;;;;;;;2.38;2.28;;;37.70;38.10;;;;;;5024331;28;20184;-75
2022/05/11 11:28:00;;;;;;;3.05;2.00;;;37.40;39.60;;;;;;5040946;28;20247;-76
2022/05/11 11:30:26;;;;;;;2.83;2.10;;;38.10;37.50;;;;;;5027628;28;20551;-75
2022/05/11 11:33:15;;;;;;;2.20;2.10;;;38.00;36.90;;;;;;5028282;28;20188;-73
2022/05/11 11:35:51;;;;;;;2.55;2.33;;;38.20;37.20;;;;;;5034499;28;20202;-77
2022/05/11 11:38:39;;;;;;;2.88;2.08;;;38.50;37.20;;;;;;5032505;28;20605;-73
2022/05/11 11:41:16;;;;;;;2.40;2.25;;;38.40;36.20;;;;;;5028769;28;20202;-71
2022/05/11 11:43:54;;;;;;;2.28;2.17;;;38.10;37.30;;;;;;5024919;28;20691;-72
2022/05/11 11:46:38;;;;;;;2.97;2.17;;;37.50;37.50;;;;;;5030813;28;20240;-74
2022/05/11 11:49:07;;;;;;;2.10;2.00;;;37.90;38.20;;;;;;5012202;28;20542;-73
2022/05/11 11:52:01;;;;;;;1.85;1.75;;;38.60;36.00;;;;;;5012231;28;20165;-73
2022/05/11 11:54:36;;;;;;;2.20;2.00;;;38.40;36.00;;;;;;5012376;28;20570;-74
2022/05/11 11:57:04;;;;;;;2.17;2.03;;;38.10;35.20;;;;;;5014177;28;20204;-74
2022/05/11 11:59:29;;;;;;;3.70;1.98;;;37.70;36.20;;;;;;5033865;28;20191;-74
2022/05/11 12:02:17;;;;;;;2.35;2.03;;;37.30;37.30;;;;;;5033783;28;20180;-71
2022/05/11 12:05:13;;;;;;;1.90;1.83;;;37.30;36.40;;;;;;5031746;28;20211;-75
2022/05/11 12:16:13;;;;;;;2.05;1.95;;;37.40;36.90;;;;;;5034763;28;20191;-72
2022/05/11 12:18:41;;;;;;;2.50;1.75;;;37.70;35.60;;;;;;5034685;28;20196;-72
2022/05/11 12:21:11;;;;;;;1.73;1.60;;;37.70;36.60;;;;;;5034538;28;20171;-72
2022/05/11 12:23:48;;;;;;;1.63;1.52;;;38.20;35.80;;;;;;5032268;28;20208;-72
2022/05/11 12:26:23;;;;;;;8.35;1.80;;;38.50;34.60;;;;;;5049803;28;20176;-72
2022/05/11 12:28:49;;;;;;;2.13;1.80;;;38.90;34.40;;;;;;5034244;28;20372;-72
2022/05/11 12:31:32;;;;;;;2.25;2.00;;;38.80;34.90;;;;;;5032348;28;20176;-76
2022/05/11 12:33:57;;;;;;;1.98;1.75;;;38.60;35.10;;;;;;5018580;28;20176;-70
2022/05/11 12:36:37;;;;;;;1.90;1.80;;;38.40;35.90;;;;;;5013245;28;20282;-70
2022/05/11 12:39:04;;;;;;;1.50;1.50;;;37.90;35.50;;;;;;5026389;28;20263;-70
2022/05/11 12:41:31;;;;;;;1.77;1.60;;;38.50;35.10;;;;;;5023988;28;20199;-69
2022/05/11 12:44:04;;;;;;;3.95;2.00;;;38.90;34.20;;;;;;5019580;28;20354;-69
2022/05/11 12:46:33;;;;;;;3.58;1.85;;;39.20;35.10;;;;;;5030961;28;20238;-69
2022/05/11 12:49:04;;;;;;;1.80;1.70;;;40.30;34.00;;;;;;5014256;28;20185;-70
2022/05/11 12:51:38;;;;;;;1.80;1.70;;;41.60;33.80;;;;;;5015264;28;20255;-71
2022/05/11 12:54:08;;;;;;;1.95;1.85;;;43.80;31.90;;;;;;5012972;28;20180;-71
2022/05/11 12:56:40;;;;;;;1.40;1.40;;;45.70;30.10;;;;;;5027901;28;20713;-71
2022/05/11 12:59:33;;;;;;;6.32;1.90;;;46.50;29.80;;;;;;5026346;28;20227;-71
2022/05/11 13:02:17;;;;;;;3.80;1.92;;;47.20;29.30;;;;;;5021032;28;20171;-70
2022/05/11 13:04:52;;;;;;;2.08;1.90;;;46.60;29.10;;;;;;5029249;28;20187;-71
2022/05/11 13:07:24;;;;;;;2.05;1.90;;;47.50;29.30;;;;;;5017872;28;20632;-69
2022/05/11 13:09:54;;;;;;;1.73;1.63;;;48.10;28.50;;;;;;5015156;28;20271;-71
2022/05/11 13:12:20;;;;;;;3.60;1.90;;;49.00;28.90;;;;;;5014735;28;20651;-71
2022/05/11 13:14:58;;;;;;;2.38;2.17;;;50.40;27.50;;;;;;5014515;28;20223;-70
2022/05/11 13:17:35;;;;;;;1.70;1.60;;;50.60;27.10;;;;;;5030509;28;20188;-70
2022/05/11 13:20:08;;;;;;;1.70;1.60;;;50.70;26.80;;;;;;5029311;28;20172;-70
2022/05/11 13:22:34;;;;;;;1.90;1.80;;;50.90;27.00;;;;;;5018119;28;20220;-70
2022/05/11 13:25:03;;;;;;;1.80;1.67;;;50.40;27.30;;;;;;5012106;28;20248;-71
2022/05/11 13:27:37;;;;;;;1.92;1.83;;;51.20;27.00;;;;;;5015755;28;20200;-72
2022/05/11 13:30:32;;;;;;;2.92;1.70;;;50.80;26.90;;;;;;5030187;28;20188;-71
2022/05/11 13:33:03;;;;;;;2.47;1.52;;;50.60;27.10;;;;;;5012679;28;20276;-69
2022/05/11 13:35:35;;;;;;;1.85;1.58;;;50.70;27.30;;;;;;5019292;28;20176;-72
2022/05/11 13:38:09;;;;;;;3.00;1.73;;;51.30;26.70;;;;;;5021181;28;20204;-70
2022/05/11 13:40:38;;;;;;;1.80;1.70;;;52.10;26.80;;;;;;5015705;28;20259;-69
2022/05/11 13:43:19;;;;;;;1.40;1.40;;;52.90;26.20;;;;;;5014436;28;20607;-70